Thunder radar more information blitzortung!


Radar de pluja more information rain snow radar


Visita la nostra xarxa de llocs de meteo:

Template documentation
and downloads

And another site



Extreme low temperature From: 13-12-2017 09:00 Until: 09:59 warning for: Extreme low temperature Level: Yellow info button

Pagina Historial Weather Underground text

Diari Resum Setembre 29, 2017 Unitats:  Mètric    Imperial   Tant
« Previous Dia
SegĂźent Dia »
Diari Setmana Mensual Anual Personalitzada
  Maxima: Minima: Media:
Temperatura: 27.2 °C 15.5 °C 21.8 °C
Punt de rosada: 16.9 °C 12.8 °C 14.8 °C
Humitat: 90 % 46 % 66 %
Wind Speed: 14.8 km/h 0.0 km/h 5.9 km/h
RĂ fegues de vent: 14.8 km/h - -
Vent:- - SSW
Pression baro: 1026.0 hPa 1019.9 hPa -
Precipitacions: 0.0 mm    
Historical Graphs
 
 
Dades de taula per Setembre 29, 2017
Temps Temperatura Punt de rosada Pression baro Vent Wind Speed RĂ fegues de vent Humitat Rainfall Rate (Hourly)
00:01 17.7 °C 14.0 °C 1026.0 hPa NNW 1.9 km/h 1.9 km/h 79 % 0.0 mm
00:06 17.7 °C 14.0 °C 1026.0 hPa Calm     79 % 0.0 mm
00:11 17.6 °C 13.9 °C 1026.0 hPa Calm     79 % 0.0 mm
03:55 15.8 °C 14.0 °C 1024.9 hPa Calm   3.2 km/h 89 % 0.0 mm
04:05 16.3 °C 14.7 °C 1024.9 hPa Calm   1.6 km/h 90 % 0.0 mm
04:15 17.1 °C 15.1 °C 1024.9 hPa Calm   1.6 km/h 88 % 0.0 mm
04:25 17.5 °C 15.1 °C 1024.9 hPa North 1.6 km/h 1.6 km/h 86 % 0.0 mm
04:35 17.6 °C 15.1 °C 1024.9 hPa NE 1.6 km/h 3.2 km/h 85 % 0.0 mm
04:45 18.3 °C 15.4 °C 1024.9 hPa Calm   3.2 km/h 83 % 0.0 mm
04:55 18.8 °C 15.4 °C 1024.9 hPa NE 1.6 km/h 1.6 km/h 81 % 0.0 mm
05:05 19.0 °C 15.3 °C 1024.9 hPa Calm   3.2 km/h 79 % 0.0 mm
05:15 19.1 °C 15.2 °C 1024.9 hPa ENE 3.2 km/h 6.4 km/h 78 % 0.0 mm
05:25 19.4 °C 15.3 °C 1026.0 hPa NE 3.2 km/h 3.2 km/h 77 % 0.0 mm
10:27 19.7 °C 15.6 °C 1026.0 hPa NNE 5.6 km/h 5.6 km/h 77 % 0.0 mm
10:28 19.7 °C 15.6 °C 1026.0 hPa ENE 5.8 km/h 5.8 km/h 77 % 0.0 mm
10:31 19.6 °C 15.4 °C 1024.9 hPa NE 5.6 km/h 5.6 km/h 77 % 0.0 mm
10:36 20.1 °C 15.9 °C 1024.9 hPa NNW 3.7 km/h 3.7 km/h 77 % 0.0 mm
10:41 20.5 °C 16.1 °C 1024.9 hPa North 7.4 km/h 7.4 km/h 76 % 0.0 mm
10:46 20.6 °C 16.0 °C 1024.9 hPa NNW 3.9 km/h 3.9 km/h 75 % 0.0 mm
10:51 20.4 °C 15.6 °C 1024.9 hPa NNE 5.3 km/h 5.3 km/h 74 % 0.0 mm
10:56 20.7 °C 15.9 °C 1024.9 hPa NE 3.7 km/h 3.7 km/h 74 % 0.0 mm
11:01 20.9 °C 15.9 °C 1024.9 hPa ENE 3.7 km/h 3.7 km/h 73 % 0.0 mm
11:06 21.2 °C 16.2 °C 1024.9 hPa NW 5.6 km/h 5.6 km/h 73 % 0.0 mm
11:11 20.8 °C 15.8 °C 1024.9 hPa South 3.7 km/h 3.7 km/h 73 % 0.0 mm
11:16 21.5 °C 16.2 °C 1024.9 hPa East 3.7 km/h   72 % 0.0 mm
11:21 21.9 °C 16.4 °C 1024.9 hPa SE 3.7 km/h 3.7 km/h 71 % 0.0 mm
11:26 22.0 °C 16.1 °C 1024.9 hPa SSE 5.6 km/h   69 % 0.0 mm
11:31 22.4 °C 16.4 °C 1024.9 hPa SSE 1.9 km/h   69 % 0.0 mm
11:36 22.6 °C 16.4 °C 1024.9 hPa NNE 5.6 km/h 5.6 km/h 68 % 0.0 mm
11:41 22.2 °C 15.8 °C 1024.9 hPa ENE 4.2 km/h 4.2 km/h 67 % 0.0 mm
11:46 22.6 °C 16.4 °C 1024.9 hPa NNE 3.7 km/h 3.7 km/h 68 % 0.0 mm
11:51 22.8 °C 16.6 °C 1024.9 hPa WNW 5.6 km/h 5.6 km/h 68 % 0.0 mm
11:56 22.4 °C 16.2 °C 1024.9 hPa West 5.6 km/h 5.6 km/h 68 % 0.0 mm
12:01 22.9 °C 16.4 °C 1023.9 hPa NNW 3.7 km/h 3.7 km/h 67 % 0.0 mm
12:06 23.3 °C 16.6 °C 1023.9 hPa West 5.6 km/h 5.6 km/h 66 % 0.0 mm
12:11 23.9 °C 16.9 °C 1023.9 hPa SW 5.3 km/h 5.3 km/h 65 % 0.0 mm
12:16 23.7 °C 16.5 °C 1023.9 hPa West 9.0 km/h 9.0 km/h 64 % 0.0 mm
12:21 24.0 °C 16.5 °C 1023.9 hPa SSW 3.9 km/h 3.9 km/h 63 % 0.0 mm
12:26 24.1 °C 16.4 °C 1023.9 hPa SSW 9.3 km/h 9.3 km/h 62 % 0.0 mm
12:31 23.8 °C 16.1 °C 1023.9 hPa SW 7.4 km/h 7.4 km/h 62 % 0.0 mm
12:36 23.8 °C 15.6 °C 1023.9 hPa ESE 7.4 km/h 7.4 km/h 60 % 0.0 mm
12:41 24.1 °C 15.6 °C 1023.9 hPa West 3.7 km/h 3.7 km/h 59 % 0.0 mm
12:46 24.5 °C 15.4 °C 1023.9 hPa SE 7.4 km/h 7.4 km/h 57 % 0.0 mm
12:51 24.6 °C 15.8 °C 1023.9 hPa SSW 9.3 km/h 9.3 km/h 58 % 0.0 mm
12:56 24.4 °C 15.3 °C 1023.9 hPa SW 9.3 km/h 9.3 km/h 57 % 0.0 mm
13:01 24.5 °C 15.2 °C 1023.9 hPa NW 5.6 km/h 5.6 km/h 56 % 0.0 mm
13:06 24.3 °C 14.7 °C 1023.9 hPa ESE 5.6 km/h 5.6 km/h 55 % 0.0 mm
13:11 24.9 °C 15.2 °C 1023.9 hPa SW 3.7 km/h 3.7 km/h 55 % 0.0 mm
13:16 25.6 °C 15.3 °C 1022.9 hPa SE 5.0 km/h 5.0 km/h 53 % 0.0 mm
13:21 25.4 °C 15.1 °C 1022.9 hPa ESE 5.6 km/h 5.6 km/h 53 % 0.0 mm
13:26 25.5 °C 15.5 °C 1022.9 hPa SSW 9.3 km/h 9.3 km/h 54 % 0.0 mm
13:31 26.0 °C 15.4 °C 1022.9 hPa ESE 5.6 km/h 5.6 km/h 52 % 0.0 mm
13:36 26.1 °C 15.5 °C 1022.9 hPa WSW 9.3 km/h 9.3 km/h 52 % 0.0 mm
13:41 26.2 °C 14.9 °C 1022.9 hPa SW 5.6 km/h 5.6 km/h 50 % 0.0 mm
13:46 25.9 °C 14.7 °C 1022.9 hPa SSE 5.6 km/h 5.6 km/h 50 % 0.0 mm
13:51 25.7 °C 14.2 °C 1022.9 hPa ESE 3.9 km/h 3.9 km/h 49 % 0.0 mm
13:56 26.4 °C 14.8 °C 1022.9 hPa WSW 6.1 km/h 6.1 km/h 49 % 0.0 mm
14:01 26.2 °C 14.9 °C 1022.9 hPa NNE 5.6 km/h 5.6 km/h 50 % 0.0 mm
14:06 26.2 °C 14.9 °C 1022.9 hPa South 6.9 km/h 6.9 km/h 50 % 0.0 mm
14:11 26.7 °C 15.4 °C 1022.9 hPa SW 11.1 km/h 11.1 km/h 50 % 0.0 mm
14:16 27.0 °C 15.1 °C 1021.9 hPa SW 5.6 km/h 6.1 km/h 48 % 0.0 mm
14:21 27.0 °C 14.4 °C 1021.9 hPa SSE 5.6 km/h 5.8 km/h 46 % 0.0 mm
14:26 27.0 °C 14.4 °C 1021.9 hPa East 6.9 km/h 6.9 km/h 46 % 0.0 mm
14:31 26.4 °C 14.2 °C 1022.9 hPa ESE 13.0 km/h 13.0 km/h 47 % 0.0 mm
14:36 26.1 °C 14.6 °C 1022.9 hPa SSE 7.4 km/h 7.4 km/h 49 % 0.0 mm
14:41 25.7 °C 14.8 °C 1022.9 hPa ESE 9.3 km/h 9.3 km/h 51 % 0.0 mm
14:46 25.8 °C 14.9 °C 1021.9 hPa ESE 13.0 km/h 13.0 km/h 51 % 0.0 mm
14:51 25.1 °C 14.3 °C 1021.9 hPa ENE 9.3 km/h 9.3 km/h 51 % 0.0 mm
14:56 25.0 °C 14.2 °C 1021.9 hPa SE 10.3 km/h 10.3 km/h 51 % 0.0 mm
15:01 25.1 °C 14.6 °C 1021.9 hPa East 13.0 km/h 13.0 km/h 52 % 0.0 mm
15:06 24.9 °C 14.7 °C 1021.9 hPa ENE 4.2 km/h 4.2 km/h 53 % 0.0 mm
15:11 24.7 °C 14.5 °C 1021.9 hPa ENE 7.4 km/h 7.4 km/h 53 % 0.0 mm
15:16 25.0 °C 14.4 °C 1021.9 hPa ENE 9.3 km/h 9.3 km/h 52 % 0.0 mm
15:21 25.2 °C 14.9 °C 1021.9 hPa ESE 9.3 km/h 9.3 km/h 53 % 0.0 mm
15:26 24.6 °C 14.7 °C 1021.9 hPa ESE 9.3 km/h 9.3 km/h 54 % 0.0 mm
15:31 24.8 °C 14.8 °C 1021.9 hPa NE 9.5 km/h 9.5 km/h 54 % 0.0 mm
15:36 24.8 °C 14.8 °C 1021.9 hPa ESE 9.3 km/h 9.3 km/h 54 % 0.0 mm
15:37 24.8 °C 14.8 °C 1021.9 hPa ESE 10.3 km/h 10.3 km/h 54 % 0.0 mm
15:42 25.0 °C 14.8 °C 1021.9 hPa ESE 11.1 km/h 11.1 km/h 53 % 0.0 mm
15:47 25.5 °C 15.5 °C 1021.9 hPa SSW 11.1 km/h 11.1 km/h 54 % 0.0 mm
15:52 25.5 °C 15.2 °C 1021.9 hPa ENE 7.4 km/h 7.4 km/h 53 % 0.0 mm
15:57 25.6 °C 15.6 °C 1021.9 hPa SW 7.4 km/h 7.4 km/h 54 % 0.0 mm
15:58 25.8 °C 15.8 °C 1021.9 hPa SE 8.7 km/h 8.7 km/h 54 % 0.0 mm
16:03 25.3 °C 15.1 °C 1021.9 hPa NNE 9.3 km/h 9.3 km/h 53 % 0.0 mm
16:08 25.9 °C 15.6 °C 1021.9 hPa SSE 7.4 km/h 7.4 km/h 53 % 0.0 mm
16:13 26.4 °C 15.8 °C 1021.9 hPa South 5.6 km/h 5.6 km/h 52 % 0.0 mm
16:18 26.5 °C 15.6 °C 1020.9 hPa SW 7.4 km/h 7.4 km/h 51 % 0.0 mm
16:23 27.0 °C 16.0 °C 1020.9 hPa SW 11.9 km/h 11.9 km/h 51 % 0.0 mm
16:28 27.1 °C 15.8 °C 1020.9 hPa SSW 10.3 km/h 10.3 km/h 50 % 0.0 mm
16:33 27.2 °C 15.6 °C 1021.9 hPa SW 9.3 km/h 9.3 km/h 49 % 0.0 mm
16:38 26.8 °C 15.5 °C 1021.9 hPa SSW 13.0 km/h 13.0 km/h 50 % 0.0 mm
16:43 26.9 °C 15.6 °C 1021.9 hPa SW 10.0 km/h 10.0 km/h 50 % 0.0 mm
16:48 26.8 °C 15.2 °C 1020.9 hPa SW 13.0 km/h 13.0 km/h 49 % 0.0 mm
16:53 26.8 °C 15.2 °C 1020.9 hPa SSW 9.3 km/h 9.3 km/h 49 % 0.0 mm
16:58 26.8 °C 15.2 °C 1020.9 hPa SSW 11.1 km/h 11.1 km/h 49 % 0.0 mm
17:03 26.8 °C 15.2 °C 1020.9 hPa SW 14.8 km/h 14.8 km/h 49 % 0.0 mm
17:08 26.7 °C 15.1 °C 1020.9 hPa WSW 11.1 km/h 11.1 km/h 49 % 0.0 mm
17:13 26.8 °C 15.2 °C 1020.9 hPa West 10.3 km/h 10.3 km/h 49 % 0.0 mm
17:18 26.4 °C 14.8 °C 1019.9 hPa WSW 9.3 km/h 9.3 km/h 49 % 0.0 mm
17:23 26.2 °C 14.7 °C 1019.9 hPa SW 9.3 km/h 9.3 km/h 49 % 0.0 mm
17:28 26.6 °C 15.3 °C 1019.9 hPa SW 6.9 km/h 6.9 km/h 50 % 0.0 mm
17:33 26.2 °C 14.9 °C 1019.9 hPa South 9.3 km/h 9.3 km/h 50 % 0.0 mm
17:38 26.1 °C 14.9 °C 1019.9 hPa WSW 7.4 km/h 8.7 km/h 50 % 0.0 mm
17:43 25.6 °C 14.4 °C 1019.9 hPa SW 11.1 km/h 11.1 km/h 50 % 0.0 mm
17:48 25.5 °C 14.3 °C 1019.9 hPa SW 7.6 km/h 7.6 km/h 50 % 0.0 mm
17:53 25.3 °C 14.1 °C 1019.9 hPa SW 11.1 km/h 11.1 km/h 50 % 0.0 mm
17:58 25.3 °C 14.4 °C 1019.9 hPa SW 7.9 km/h 7.9 km/h 51 % 0.0 mm
18:03 25.1 °C 14.3 °C 1019.9 hPa WSW 11.1 km/h 11.1 km/h 51 % 0.0 mm
18:13 24.7 °C 14.2 °C 1019.9 hPa WSW 9.3 km/h 9.3 km/h 52 % 0.0 mm
18:18 24.6 °C 14.4 °C 1019.9 hPa WSW 7.4 km/h 7.4 km/h 53 % 0.0 mm
18:23 24.6 °C 14.4 °C 1019.9 hPa SW 7.4 km/h 7.4 km/h 53 % 0.0 mm
18:28 24.5 °C 14.6 °C 1019.9 hPa South 10.0 km/h 10.0 km/h 54 % 0.0 mm
18:29 24.4 °C 14.5 °C 1019.9 hPa SSW 9.3 km/h 9.3 km/h 54 % 0.0 mm
18:34 24.1 °C 14.2 °C 1019.9 hPa West 14.8 km/h 14.8 km/h 54 % 0.0 mm
18:39 23.9 °C 14.3 °C 1019.9 hPa SW 7.4 km/h 7.4 km/h 55 % 0.0 mm
18:44 23.6 °C 14.3 °C 1019.9 hPa SSW 14.8 km/h 14.8 km/h 56 % 0.0 mm
18:49 23.3 °C 14.1 °C 1019.9 hPa SSW 7.4 km/h 7.4 km/h 56 % 0.0 mm
18:54 23.3 °C 14.3 °C 1019.9 hPa WSW 9.3 km/h 9.3 km/h 57 % 0.0 mm
18:59 23.0 °C 14.0 °C 1019.9 hPa SW 14.8 km/h 14.8 km/h 57 % 0.0 mm
19:04 22.7 °C 14.0 °C 1019.9 hPa SW 9.3 km/h 9.3 km/h 58 % 0.0 mm
19:09 22.5 °C 14.1 °C 1019.9 hPa SSW 7.4 km/h 7.4 km/h 59 % 0.0 mm
19:14 22.4 °C 14.0 °C 1019.9 hPa South 13.0 km/h 13.0 km/h 59 % 0.0 mm
19:19 22.2 °C 14.1 °C 1019.9 hPa SSW 7.4 km/h 7.4 km/h 60 % 0.0 mm
19:24 22.0 °C 13.9 °C 1019.9 hPa WSW 9.3 km/h 9.3 km/h 60 % 0.0 mm
19:26 21.9 °C 14.1 °C 1019.9 hPa SW 11.1 km/h 11.1 km/h 61 % 0.0 mm
19:30 18.1 °C 14.4 °C 1022.9 hPa WSW 1.6 km/h 1.6 km/h 79 % 0.0 mm
19:31 21.8 °C 14.2 °C 1019.9 hPa WSW 13.0 km/h 13.0 km/h 62 % 0.0 mm
19:36 21.6 °C 14.0 °C 1019.9 hPa SW 9.3 km/h 9.3 km/h 62 % 0.0 mm
19:40 18.0 °C 14.3 °C 1022.9 hPa Calm   1.6 km/h 79 % 0.0 mm
19:41 21.5 °C 14.2 °C 1019.9 hPa SW 9.3 km/h 9.3 km/h 63 % 0.0 mm
19:46 21.3 °C 13.9 °C 1020.9 hPa SW 9.3 km/h 9.3 km/h 63 % 0.0 mm
19:50 18.0 °C 14.3 °C 1022.9 hPa WNW 1.6 km/h 3.2 km/h 79 % 0.0 mm
19:51 21.2 °C 14.1 °C 1020.9 hPa SW 13.0 km/h 13.0 km/h 64 % 0.0 mm
19:56 21.0 °C 14.2 °C 1020.9 hPa WSW 7.4 km/h 7.4 km/h 65 % 0.0 mm
20:00 17.8 °C 14.1 °C 1022.9 hPa West 1.6 km/h 3.2 km/h 79 % 0.0 mm
20:01 20.9 °C 14.1 °C 1020.9 hPa SW 9.7 km/h 9.7 km/h 65 % 0.0 mm
20:06 20.8 °C 14.2 °C 1020.9 hPa SW 9.3 km/h 9.3 km/h 66 % 0.0 mm
20:10 17.6 °C 14.1 °C 1021.9 hPa WSW 1.6 km/h 3.2 km/h 80 % 0.0 mm
20:11 20.7 °C 14.1 °C 1020.9 hPa SW 9.7 km/h 9.7 km/h 66 % 0.0 mm
20:16 20.6 °C 14.3 °C 1021.9 hPa SW 11.1 km/h 11.1 km/h 67 % 0.0 mm
20:20 17.6 °C 14.1 °C 1021.9 hPa West 1.6 km/h 3.2 km/h 80 % 0.0 mm
20:21 20.5 °C 14.2 °C 1021.9 hPa SW 9.3 km/h 9.3 km/h 67 % 0.0 mm
20:26 20.4 °C 14.3 °C 1021.9 hPa WSW 10.0 km/h 10.0 km/h 68 % 0.0 mm
20:30 17.5 °C 14.0 °C 1021.9 hPa West 1.6 km/h 3.2 km/h 80 % 0.0 mm
20:31 20.3 °C 14.4 °C 1020.9 hPa WSW 7.4 km/h 7.4 km/h 69 % 0.0 mm
20:36 20.2 °C 14.3 °C 1020.9 hPa SW 9.3 km/h 9.3 km/h 69 % 0.0 mm
20:40 17.5 °C 14.2 °C 1022.9 hPa WSW 1.6 km/h 3.2 km/h 81 % 0.0 mm
20:41 20.1 °C 14.2 °C 1020.9 hPa South 7.4 km/h 7.4 km/h 69 % 0.0 mm
20:42 20.1 °C 14.2 °C 1020.9 hPa SW 7.4 km/h 7.4 km/h 69 % 0.0 mm
20:47 20.0 °C 14.3 °C 1020.9 hPa SW 4.2 km/h 4.2 km/h 70 % 0.0 mm
20:50 17.5 °C 14.2 °C 1022.9 hPa Calm   3.2 km/h 81 % 0.0 mm
20:52 20.0 °C 14.3 °C 1020.9 hPa WSW 7.6 km/h 7.6 km/h 70 % 0.0 mm
20:57 19.9 °C 14.5 °C 1020.9 hPa West 6.4 km/h 6.4 km/h 71 % 0.0 mm
21:00 17.4 °C 14.3 °C 1022.9 hPa Calm   3.2 km/h 82 % 0.0 mm
21:02 19.8 °C 14.4 °C 1021.9 hPa WSW 9.3 km/h 9.3 km/h 71 % 0.0 mm
21:07 19.8 °C 14.6 °C 1021.9 hPa SW 5.6 km/h 5.6 km/h 72 % 0.0 mm
21:10 17.2 °C 14.1 °C 1021.9 hPa Calm     82 % 0.0 mm
21:12 19.7 °C 14.5 °C 1021.9 hPa SW 3.9 km/h 3.9 km/h 72 % 0.0 mm
21:17 19.6 °C 14.4 °C 1021.9 hPa SSW 5.6 km/h 5.6 km/h 72 % 0.0 mm
21:20 16.9 °C 14.0 °C 1021.9 hPa NW 1.6 km/h 3.2 km/h 83 % 0.0 mm
21:22 19.5 °C 14.6 °C 1021.9 hPa SW 3.7 km/h 3.7 km/h 73 % 0.0 mm
21:27 19.5 °C 14.6 °C 1021.9 hPa SW 5.6 km/h 5.6 km/h 73 % 0.0 mm
21:30 16.7 °C 13.8 °C 1021.9 hPa SSW 1.6 km/h 1.6 km/h 83 % 0.0 mm
21:32 19.4 °C 14.4 °C 1021.9 hPa West 5.6 km/h 5.6 km/h 73 % 0.0 mm
21:37 19.4 °C 14.4 °C 1021.9 hPa SW 2.3 km/h 2.3 km/h 73 % 0.0 mm
21:40 16.6 °C 13.7 °C 1021.9 hPa Calm   3.2 km/h 83 % 0.0 mm
21:42 19.3 °C 14.3 °C 1021.9 hPa West 3.2 km/h 3.2 km/h 73 % 0.0 mm
21:47 19.3 °C 14.6 °C 1022.9 hPa SW 3.2 km/h 3.2 km/h 74 % 0.0 mm
21:50 16.7 °C 13.8 °C 1021.9 hPa West 1.6 km/h 3.2 km/h 83 % 0.0 mm
21:52 19.3 °C 14.6 °C 1022.9 hPa WSW 5.6 km/h 5.6 km/h 74 % 0.0 mm
21:57 19.2 °C 14.4 °C 1022.9 hPa SW 3.7 km/h 3.7 km/h 74 % 0.0 mm
22:00 16.5 °C 13.6 °C 1021.9 hPa Calm   1.6 km/h 83 % 0.0 mm
22:02 19.2 °C 14.4 °C 1021.9 hPa WSW 3.7 km/h 3.7 km/h 74 % 0.0 mm
22:07 19.1 °C 14.6 °C 1021.9 hPa SW 1.9 km/h 1.9 km/h 75 % 0.0 mm
22:12 19.1 °C 14.6 °C 1021.9 hPa SW 2.3 km/h 2.3 km/h 75 % 0.0 mm
22:17 19.0 °C 14.4 °C 1022.9 hPa SW 3.7 km/h 3.7 km/h 75 % 0.0 mm
22:20 16.6 °C 13.9 °C 1021.9 hPa Calm     84 % 0.0 mm
22:22 19.0 °C 14.4 °C 1022.9 hPa WSW 1.9 km/h 1.9 km/h 75 % 0.0 mm
22:27 19.0 °C 14.4 °C 1022.9 hPa West 3.7 km/h 3.7 km/h 75 % 0.0 mm
22:30 16.3 °C 13.6 °C 1021.9 hPa Calm   1.6 km/h 84 % 0.0 mm
22:32 19.0 °C 14.4 °C 1022.9 hPa WSW 3.7 km/h 3.7 km/h 75 % 0.0 mm
22:37 19.0 °C 14.4 °C 1022.9 hPa WSW 2.6 km/h 2.6 km/h 75 % 0.0 mm
22:40 16.0 °C 13.3 °C 1021.9 hPa Calm     84 % 0.0 mm
22:42 19.0 °C 14.7 °C 1022.9 hPa WSW 2.3 km/h 2.3 km/h 76 % 0.0 mm
22:47 18.9 °C 14.8 °C 1022.9 hPa SW 1.9 km/h   77 % 0.0 mm
22:52 18.8 °C 14.7 °C 1022.9 hPa SW 3.7 km/h 3.7 km/h 77 % 0.0 mm
22:57 18.7 °C 14.6 °C 1022.9 hPa SW 2.6 km/h 2.6 km/h 77 % 0.0 mm
23:00 15.6 °C 12.9 °C 1020.9 hPa Calm   3.2 km/h 84 % 0.0 mm
23:02 18.5 °C 14.4 °C 1022.9 hPa SW 3.7 km/h 3.7 km/h 77 % 0.0 mm
23:07 18.5 °C 14.4 °C 1022.9 hPa SW 1.9 km/h 1.9 km/h 77 % 0.0 mm
23:10 15.5 °C 12.8 °C 1021.9 hPa Calm     84 % 0.0 mm
23:12 18.4 °C 14.5 °C 1022.9 hPa Calm     78 % 0.0 mm
23:17 18.4 °C 14.5 °C 1022.9 hPa Calm     78 % 0.0 mm
23:20 15.5 °C 13.0 °C 1021.9 hPa Calm     85 % 0.0 mm
23:22 18.3 °C 14.4 °C 1022.9 hPa SW 1.9 km/h 1.9 km/h 78 % 0.0 mm
23:27 18.3 °C 14.4 °C 1022.9 hPa SW 2.6 km/h   78 % 0.0 mm
23:30 15.5 °C 13.0 °C 1021.9 hPa Calm     85 % 0.0 mm
23:32 18.2 °C 14.3 °C 1022.9 hPa SW 1.9 km/h 1.9 km/h 78 % 0.0 mm
23:37 18.2 °C 14.3 °C 1022.9 hPa Calm     78 % 0.0 mm
23:40 15.6 °C 13.3 °C 1021.9 hPa Calm     86 % 0.0 mm
23:42 18.2 °C 14.3 °C 1022.9 hPa West 3.7 km/h 3.7 km/h 78 % 0.0 mm
23:47 18.2 °C 14.3 °C 1021.9 hPa West 3.7 km/h 3.7 km/h 78 % 0.0 mm
23:52 18.2 °C 14.3 °C 1021.9 hPa West 3.7 km/h 3.7 km/h 78 % 0.0 mm
23:57 18.2 °C 14.3 °C 1021.9 hPa West 3.7 km/h 3.7 km/h 78 % 0.0 mm
Meteo Sesrovires
Elogis d' Weather Underground - 3.5 mb

Guio original per  Jim McMurry - jmcmurry@mwt.net Adaptat per a la plantilla per  Wim van der Kuil - Leuven-Template.eu

Trobareu la nostra informacio del temps tambe a:

Weather Underground

AWEKAS